KACV/ACV METAR and TAF weather

Enter ICAO airport designator
Station Type Date Time Source
KACV METAR 2018/01/17 05:53 UTC NOAA

KACV 170553Z AUTO 10006KT 9SM OVC100 12/10 A3022 RMK AO2 SLP237 T01170100 10139 20106 50002


Station Type Date Time Source
KACV Decoded METAR 2018/01/17 05:53 UTC NOAA

ARCATA/EUREKA ARCATA AIRPORT, CA, United States (KACV) 40-59N 124-06W 67M
Jan 17, 2018 - 12:53 AM EST / 2018.01.17 0553 UTC
Wind: from the E (100 degrees) at 7 MPH (6 KT):0
Visibility: 9 mile(s):0
Sky conditions: overcast
Temperature: 53.1 F (11.7 C)
Dew Point: 50.0 F (10.0 C)
Relative Humidity: 89%
Pressure (altimeter): 30.22 in. Hg (1023 hPa)
Pressure tendency: 0.01 inches (0.2 hPa) higher than three hours ago
ob: KACV 170553Z AUTO 10006KT 9SM OVC100 12/10 A3022 RMK AO2 SLP237 T01170100 10139 20106 50002
cycle: 6

Station Type Date Time Source
KACV TAF 2018/01/17 06:48 UTC NOAA

TAF KACV 170547Z 1706/1806 11003KT 4SM BR BKN100
FM171000 13006KT P6SM FEW030 OVC050
FM171800 15012KT P6SM SCT025 OVC050 WS020/19045KT
FM172300 17012G20KT 6SM -RA BR BKN025 OVC050
FM180300 19012G18KT 3SM -SHRA BR OVC025


Example: see airport list